Glasgow, MT

2:38 AM MDT on October 01, 2014 (GMT -0600)
nashua | Change Station
CLOSE
Current Station
Personal Weather Station
Location: Nashua, MT
Elevation: 2156 ft
Nearby Weather Stations
Active Advisory: Lake Wind Advisory

Elev 2156 ft 48.11 °N, 106.45 °W | Updated 37 minutes ago

Overcast
Overcast
50.9 °F
Feels Like 50.9 °F
N
9.5
Wind Variable Wind from WSW
Gusts 17.1 mph

Today
High -- | Low -- °F
--% Chance of Precip.
Yesterday
High -- | Low -- °F
Precip. -- in
7:05 AM 6:45 PM
Waxing Crescent, 45% visible
Pressure 29.66 in
Visibility 10.0 miles
Clouds Mostly Cloudy 1300 ft
Mostly Cloudy 2300 ft
Overcast 4800 ft
Dew Point 46 °F
Humidity 84%
Rainfall 0.00 in
Snow Depth Not available.
UV 0 out of 12
Pollen 1.60 out of 12
Air Quality Not available.
Flu Activity Not available.
SPECI KGGW 010826Z AUTO 30019G25KT 10SM BKN013 BKN023 OVC048 11/08 A2966 RMK AO2 PK WND 30026/0759 T01060078

More Conditions Fewer Conditions

Pressure 29.66 in
Visibility 10.0 miles
Clouds Mostly Cloudy 1300 ft
Mostly Cloudy 2300 ft
Overcast 4800 ft
Dew Point 46 °F
Humidity 84%
Rainfall 0.00 in
Snow Depth Not available.
UV 0 out of 12
Pollen 1.60 out of 12
Air Quality Not available.
Flu Activity Not available.
SPECI KGGW 010826Z AUTO 30019G25KT 10SM BKN013 BKN023 OVC048 11/08 A2966 RMK AO2 PK WND 30026/0759 T01060078

More Conditions Fewer Conditions

10-Day Weather Forecast

Almanac

Astronomy

Oct. 01, 2014 Rise Set
Actual Time 7:05 AM MDT 6:45 PM MDT
Civil Twilight 6:34 AM MDT 7:15 PM MDT
Nautical Twilight 5:58 AM MDT 7:52 PM MDT
Astronomical Twilight 5:21 AM MDT 8:28 PM MDT
Moon 2:28 PM MDT No Moon Set
Length of Visible Light 12h 41m
Length of Day
11h 39m
Tomorrow will be 3m 28s shorter.
Waxing Crescent, 45% of the Moon is Illuminated
Today
Waxing Crescent
Oct 1
First Quarter
Oct 8
Full
Oct 15
Last Quarter
Oct 23
New

Today's Extremes

State Highs State Lows

Community

WunderPhotos

Upload Photos

1,757,902 photos uploaded!

Nearby

Snow Depth

Station Depth Elevation
Mule Creek 1 in 8300 ft
Daly Creek 0 in 5780 ft
Stahl Peak 0 in 6030 ft
Spur Park 0 in 8100 ft
Daisy Peak 0 in 7600 ft

Earthquake Activity

City Distance Mag. Time & Date
No recent earthquake activity has been reported nearby.
Minimum magnitude displayed is 2.5.

Coastal Water Temperatures

Place Temperature
No Stations Reporting

Nearby Weather Stations